Sankoumaru 31 — JD2200 — position and weather

sailwx.info

Track history (hours):
 
Tides and Currents Weather Stations Pressure Air Temp Water Temp Dewpoint Dewpoint Depression Visibility Wind Speed Wind Dir Waves Ship Positions

Sankoumaru 31

Last reported at 2017-Mar-23 16:29 UTC. Time now 2017-Mar-27 02:58 UTC.
Position N 33°50' E 132°12'.

Length 75 m; draft 5 m.

Type: Cargo ship. MMSI: 431501842.

Date/timePositionNaut miles runAvg speedWind from/ knotsBaromVisibWave heightAir tempDewpointWater temp
2017-Mar-23 16:29N 33°50' E 132°12'1111.9
2017-Mar-23 15:33N 33°51' E 132°25'1312.3
2017-Mar-23 14:28N 33°56' E 132°40'343 9.5
2017-Mar-22 02:30N 35°01' E 139°28'1111.9
2017-Mar-22 01:33N 35°07' E 139°40'1110.8
2017-Mar-22 00:33N 35°17' E 139°45'8 8.5
2017-Mar-21 23:33N 35°25' E 139°47'6 5.0
2017-Mar-21 22:22N 35°22' E 139°53'0 0.0
2017-Mar-21 19:31N 35°22' E 139°53'0 0.0
2017-Mar-21 16:19N 35°22' E 139°53'0 0.0
2017-Mar-21 13:13N 35°22' E 139°53'0 0.0
2017-Mar-21 09:13N 35°22' E 139°53'0 0.0
2017-Mar-21 06:20N 35°22' E 139°53'1 0.0
2017-Mar-19 13:27N 35°21' E 139°54'0 0.0
2017-Mar-19 03:26N 35°21' E 139°54'0 0.0
2017-Mar-18 21:08N 35°21' E 139°54'0 0.0
2017-Mar-18 20:20N 35°21' E 139°54'0 0.0
2017-Mar-18 05:26N 35°21' E 139°54'4 0.2
2017-Mar-17 08:34N 35°24' E 139°50'17 0.7
2017-Mar-16 06:18N 35°40' E 139°57'811.0
2017-Mar-16 05:33N 35°32' E 139°54'1212.3
2017-Mar-16 04:33N 35°23' E 139°46'1111.1
2017-Mar-16 03:33N 35°11' E 139°46'1211.5
2017-Mar-16 02:32N 35°02' E 139°37'361 9.2
2017-Mar-14 11:09N 33°53' E 132°27'812.2
2017-Mar-14 10:27N 33°50' E 132°18'17 9.2
2017-Mar-14 08:33N 33°52' E 131°57'  
Track history (hours):
 
Tides and Currents Weather Stations Pressure Air Temp Water Temp Dewpoint Dewpoint Depression Visibility Wind Speed Wind Dir Waves Ship Positions

Sankoumaru 31

Last reported at 2017-Mar-23 16:29 UTC. Time now 2017-Mar-27 02:58 UTC.
Position N 33°50' E 132°12'.

Length 75 m; draft 5 m.

Type: Cargo ship. MMSI: 431501842.

Date/timePositionNaut miles runAvg speedWind from/ knotsBaromVisibWave heightAir tempDewpointWater temp
2017-Mar-23 16:29N 33°50' E 132°12'1111.9
2017-Mar-23 15:33N 33°51' E 132°25'1312.3
2017-Mar-23 14:28N 33°56' E 132°40'343 9.5
2017-Mar-22 02:30N 35°01' E 139°28'1111.9
2017-Mar-22 01:33N 35°07' E 139°40'1110.8
2017-Mar-22 00:33N 35°17' E 139°45'8 8.5
2017-Mar-21 23:33N 35°25' E 139°47'6 5.0
2017-Mar-21 22:22N 35°22' E 139°53'0 0.0
2017-Mar-21 19:31N 35°22' E 139°53'0 0.0
2017-Mar-21 16:19N 35°22' E 139°53'0 0.0
2017-Mar-21 13:13N 35°22' E 139°53'0 0.0
2017-Mar-21 09:13N 35°22' E 139°53'0 0.0
2017-Mar-21 06:20N 35°22' E 139°53'1 0.0
2017-Mar-19 13:27N 35°21' E 139°54'0 0.0
2017-Mar-19 03:26N 35°21' E 139°54'0 0.0
2017-Mar-18 21:08N 35°21' E 139°54'0 0.0
2017-Mar-18 20:20N 35°21' E 139°54'0 0.0
2017-Mar-18 05:26N 35°21' E 139°54'4 0.2
2017-Mar-17 08:34N 35°24' E 139°50'17 0.7
2017-Mar-16 06:18N 35°40' E 139°57'811.0
2017-Mar-16 05:33N 35°32' E 139°54'1212.3
2017-Mar-16 04:33N 35°23' E 139°46'1111.1
2017-Mar-16 03:33N 35°11' E 139°46'1211.5
2017-Mar-16 02:32N 35°02' E 139°37'361 9.2
2017-Mar-14 11:09N 33°53' E 132°27'812.2
2017-Mar-14 10:27N 33°50' E 132°18'17 9.2
2017-Mar-14 08:33N 33°52' E 131°57'  

Dump ship's entire track history